createdAt,value
2023-03-21T00:00:43.708Z,6.31
2023-03-21T00:03:12.783Z,6.24
2023-03-21T00:05:43.103Z,6.13
2023-03-21T00:08:12.342Z,6.10
2023-03-21T00:10:43.488Z,6.05
2023-03-21T00:13:14.351Z,6.03
2023-03-21T00:16:04.267Z,6.00
2023-03-21T00:18:33.218Z,5.91
2023-03-21T00:21:35.531Z,5.78
2023-03-21T00:23:48.645Z,5.69
2023-03-21T00:26:17.298Z,5.78
2023-03-21T00:28:46.265Z,5.68
2023-03-21T00:31:12.831Z,5.78
2023-03-21T00:33:39.566Z,5.82
2023-03-21T00:36:10.564Z,5.73
2023-03-21T00:38:40.987Z,5.75
2023-03-21T00:41:23.309Z,5.81
2023-03-21T00:44:04.144Z,5.76
2023-03-21T00:46:44.052Z,5.64
2023-03-21T00:49:16.098Z,5.58
2023-03-21T00:51:45.397Z,5.54
2023-03-21T00:54:12.831Z,5.64
2023-03-21T00:56:39.531Z,5.58
2023-03-21T00:59:08.134Z,5.49
2023-03-21T01:01:34.916Z,5.52
2023-03-21T01:04:13.599Z,5.51
2023-03-21T01:06:42.454Z,5.58
2023-03-21T01:09:14.050Z,5.51
2023-03-21T01:11:45.248Z,5.37
2023-03-21T01:14:23.800Z,5.35
2023-03-21T01:16:56.075Z,5.33
2023-03-21T01:19:44.273Z,5.13
2023-03-21T01:22:14.889Z,5.20
2023-03-21T01:24:52.416Z,5.06
2023-03-21T01:27:22.820Z,5.06
2023-03-21T01:29:49.660Z,5.00
2023-03-21T01:32:20.890Z,4.99
2023-03-21T01:34:47.446Z,4.96
2023-03-21T01:37:17.865Z,4.92
2023-03-21T01:39:44.452Z,4.89
2023-03-21T01:42:14.661Z,4.96
2023-03-21T01:45:07.201Z,4.85
2023-03-21T01:47:36.164Z,4.82
2023-03-21T01:50:04.413Z,4.80
2023-03-21T01:52:41.698Z,4.85
2023-03-21T01:55:12.743Z,4.82
2023-03-21T01:58:02.425Z,4.82
2023-03-21T02:00:32.113Z,4.84
2023-03-21T02:03:11.499Z,4.86
2023-03-21T02:06:03.286Z,4.87
2023-03-21T02:08:39.475Z,4.87
2023-03-21T02:11:07.807Z,4.64
2023-03-21T02:13:42.114Z,4.80
2023-03-21T02:16:21.833Z,4.79
2023-03-21T02:18:48.380Z,4.85
2023-03-21T02:21:53.127Z,4.83
2023-03-21T02:24:32.466Z,4.84
2023-03-21T02:27:18.933Z,4.78
2023-03-21T02:30:13.070Z,4.85
2023-03-21T02:33:31.630Z,4.65
2023-03-21T02:36:14.423Z,4.54
2023-03-21T02:38:43.988Z,4.46
2023-03-21T02:41:19.539Z,4.38
2023-03-21T02:43:55.563Z,4.35
2023-03-21T02:46:45.571Z,4.32
2023-03-21T02:49:31.463Z,4.46
2023-03-21T02:52:05.500Z,4.53
2023-03-21T02:54:48.409Z,4.58
2023-03-21T02:57:19.432Z,4.45
2023-03-21T02:59:55.697Z,4.41
2023-03-21T03:02:27.446Z,4.33
2023-03-21T03:04:56.321Z,4.29
2023-03-21T03:07:31.552Z,4.28
2023-03-21T03:10:16.376Z,4.31
2023-03-21T03:13:00.966Z,4.28
2023-03-21T03:15:59.911Z,4.16
2023-03-21T03:18:54.426Z,4.23
2023-03-21T03:21:37.991Z,4.22
2023-03-21T03:24:11.852Z,4.06
2023-03-21T03:26:48.251Z,4.07
2023-03-21T03:29:20.862Z,4.02
2023-03-21T03:32:01.904Z,4.03
2023-03-21T03:34:40.790Z,4.06
2023-03-21T03:37:13.559Z,4.07
2023-03-21T03:39:49.919Z,4.00
2023-03-21T03:42:30.411Z,3.93
2023-03-21T03:44:57.602Z,3.88
2023-03-21T03:47:41.951Z,3.81
2023-03-21T03:50:44.604Z,3.88
2023-03-21T03:53:25.810Z,3.77
2023-03-21T03:55:58.076Z,3.75
2023-03-21T03:58:39.546Z,3.68
2023-03-21T04:01:14.221Z,3.67
2023-03-21T04:03:50.210Z,3.71
2023-03-21T04:06:22.285Z,3.68
2023-03-21T04:08:48.893Z,3.79
2023-03-21T04:11:16.313Z,3.90
2023-03-21T04:13:50.969Z,3.94
2023-03-21T04:16:17.592Z,3.95
2023-03-21T04:18:44.219Z,3.92
2023-03-21T04:21:12.909Z,3.85
2023-03-21T04:23:42.633Z,3.84
2023-03-21T04:26:13.093Z,3.75
2023-03-21T04:28:41.894Z,3.64
2023-03-21T04:31:24.456Z,3.59
2023-03-21T04:33:55.906Z,3.58
2023-03-21T04:36:27.466Z,3.55
2023-03-21T04:38:54.976Z,3.54
2023-03-21T04:41:21.614Z,3.45
2023-03-21T04:43:52.417Z,3.39
2023-03-21T04:46:21.890Z,3.31
2023-03-21T04:48:51.418Z,3.33
2023-03-21T04:51:20.323Z,3.45
2023-03-21T04:53:49.504Z,3.50
2023-03-21T04:56:18.360Z,3.44
2023-03-21T04:58:50.248Z,3.29
2023-03-21T05:01:20.240Z,3.29
2023-03-21T05:03:46.918Z,3.30
2023-03-21T05:06:13.525Z,3.38
2023-03-21T05:08:41.523Z,3.32
2023-03-21T05:11:08.074Z,3.32
2023-03-21T05:13:34.651Z,3.19
2023-03-21T05:16:01.273Z,3.09
2023-03-21T05:18:34.874Z,2.93
2023-03-21T05:21:05.138Z,2.92
2023-03-21T05:23:31.792Z,2.89
2023-03-21T05:26:00.762Z,3.05
2023-03-21T05:28:36.183Z,3.13
2023-03-21T05:31:06.223Z,3.17
2023-03-21T05:33:35.060Z,3.09
2023-03-21T05:36:04.330Z,3.18
2023-03-21T05:38:31.234Z,3.11
2023-03-21T05:41:00.380Z,3.04
2023-03-21T05:43:29.555Z,3.12
2023-03-21T05:45:59.238Z,3.19
2023-03-21T05:48:25.874Z,3.26
2023-03-21T05:50:54.858Z,3.28
2023-03-21T05:53:23.483Z,3.17
2023-03-21T05:55:50.117Z,3.30
2023-03-21T05:58:16.669Z,3.24
2023-03-21T06:00:43.226Z,3.31
2023-03-21T06:03:12.284Z,3.48
2023-03-21T06:05:39.055Z,3.58
2023-03-21T06:08:06.161Z,3.60
2023-03-21T06:10:34.931Z,3.79
2023-03-21T06:13:03.698Z,3.91
2023-03-21T06:15:32.922Z,3.95
2023-03-21T06:17:59.575Z,3.88
2023-03-21T06:20:26.382Z,3.93
2023-03-21T06:22:55.211Z,3.88
2023-03-21T06:25:21.903Z,4.00
2023-03-21T06:27:48.430Z,4.14
2023-03-21T06:30:15.780Z,4.18
2023-03-21T06:32:42.339Z,4.34
2023-03-21T06:35:09.410Z,4.39
2023-03-21T06:37:35.962Z,4.53
2023-03-21T06:40:02.738Z,4.50
2023-03-21T06:42:30.106Z,4.64
2023-03-21T06:44:56.724Z,4.67
2023-03-21T06:47:28.086Z,4.60
2023-03-21T06:49:57.892Z,4.81
2023-03-21T06:52:29.168Z,4.95
2023-03-21T06:54:56.312Z,5.01
2023-03-21T06:57:27.554Z,5.19
2023-03-21T06:59:56.371Z,5.06
2023-03-21T07:02:25.227Z,5.16
2023-03-21T07:04:51.809Z,5.43
2023-03-21T07:07:18.416Z,5.63
2023-03-21T07:09:44.998Z,5.81
2023-03-21T07:12:11.567Z,5.86
2023-03-21T07:14:40.523Z,6.16
2023-03-21T07:17:09.298Z,6.42
2023-03-21T07:19:38.201Z,6.61
2023-03-21T07:22:07.116Z,6.88
2023-03-21T07:24:33.732Z,7.17
2023-03-21T07:27:00.312Z,7.25
2023-03-21T07:29:29.814Z,7.38
2023-03-21T07:31:58.767Z,6.86
2023-03-21T07:34:27.354Z,7.17
2023-03-21T07:36:53.971Z,7.49
2023-03-21T07:39:26.141Z,7.64
2023-03-21T07:41:59.974Z,7.88
2023-03-21T07:44:27.194Z,8.07
2023-03-21T07:46:56.174Z,8.24
2023-03-21T07:49:25.038Z,8.50
2023-03-21T07:51:56.491Z,8.80
2023-03-21T07:54:25.586Z,8.78
2023-03-21T07:56:54.385Z,8.63
2023-03-21T07:59:21.041Z,8.64
2023-03-21T08:01:47.664Z,8.62
2023-03-21T08:04:16.477Z,8.64
2023-03-21T08:06:43.067Z,8.59
2023-03-21T08:09:09.924Z,8.70
2023-03-21T08:11:36.859Z,8.77
2023-03-21T08:14:03.423Z,8.83
2023-03-21T08:16:32.350Z,8.98
2023-03-21T08:19:04.186Z,9.14
2023-03-21T08:21:33.747Z,9.19
2023-03-21T08:24:00.410Z,9.19
2023-03-21T08:26:27.067Z,9.24
2023-03-21T08:28:53.663Z,9.37
2023-03-21T08:31:22.372Z,9.37
2023-03-21T08:33:54.306Z,9.33
2023-03-21T08:36:24.139Z,9.28
2023-03-21T08:38:54.253Z,9.34
2023-03-21T08:41:22.181Z,9.47
2023-03-21T08:43:49.301Z,9.40
2023-03-21T08:46:18.124Z,9.24
2023-03-21T08:48:44.719Z,9.39
2023-03-21T08:51:11.305Z,9.51
2023-03-21T08:53:41.560Z,9.50
2023-03-21T08:56:08.601Z,9.55
2023-03-21T08:58:35.249Z,9.60
2023-03-21T09:01:05.004Z,9.63
2023-03-21T09:03:31.610Z,9.58
2023-03-21T09:05:59.059Z,9.52
2023-03-21T09:08:25.672Z,9.56
2023-03-21T09:10:56.246Z,9.54
2023-03-21T09:13:25.252Z,9.81
2023-03-21T09:15:53.057Z,9.84
2023-03-21T09:18:38.671Z,9.75
2023-03-21T09:21:12.798Z,10.09
2023-03-21T09:23:39.868Z,10.08
2023-03-21T09:26:10.498Z,10.12
2023-03-21T09:28:40.603Z,10.29
2023-03-21T09:31:11.908Z,10.21
2023-03-21T09:33:43.919Z,10.53
2023-03-21T09:36:15.497Z,10.72
2023-03-21T09:38:45.585Z,10.83
2023-03-21T09:41:52.816Z,10.96
2023-03-21T09:44:37.912Z,11.06
2023-03-21T09:47:29.003Z,11.12
2023-03-21T09:50:13.475Z,10.90
2023-03-21T09:52:47.941Z,11.08
2023-03-21T09:55:26.334Z,11.27
2023-03-21T09:58:04.361Z,11.31
2023-03-21T10:00:40.202Z,11.36
2023-03-21T10:03:20.136Z,11.34
2023-03-21T10:05:57.540Z,11.45
2023-03-21T10:08:37.677Z,11.55
2023-03-21T10:11:27.382Z,11.71
2023-03-21T10:14:23.300Z,11.87
2023-03-21T10:16:59.582Z,11.63
2023-03-21T10:19:29.623Z,11.80
2023-03-21T10:22:01.329Z,11.84
2023-03-21T10:24:36.838Z,11.71
2023-03-21T10:27:05.363Z,12.02
2023-03-21T10:29:43.632Z,12.05
2023-03-21T10:32:15.378Z,12.29
2023-03-21T10:34:45.028Z,12.36
2023-03-21T10:37:14.044Z,12.52
2023-03-21T10:39:48.442Z,12.65
2023-03-21T10:42:28.566Z,12.65
2023-03-21T10:45:02.396Z,12.84
2023-03-21T10:47:34.284Z,13.09
2023-03-21T10:50:16.021Z,12.95
2023-03-21T10:52:55.658Z,12.90
2023-03-21T10:55:29.141Z,13.26
2023-03-21T10:58:02.871Z,13.46
2023-03-21T11:00:37.090Z,13.80
2023-03-21T11:03:06.904Z,13.77
2023-03-21T11:05:42.410Z,13.94
2023-03-21T11:08:18.638Z,13.40
2023-03-21T11:10:59.618Z,13.50
2023-03-21T11:13:33.540Z,13.72
2023-03-21T11:16:12.430Z,13.92
2023-03-21T11:18:50.088Z,13.99
2023-03-21T11:21:17.759Z,13.74
2023-03-21T11:23:52.928Z,13.66
2023-03-21T11:26:33.251Z,13.64
2023-03-21T11:29:02.772Z,13.78
2023-03-21T11:31:40.186Z,13.82
2023-03-21T11:34:24.149Z,14.03
2023-03-21T11:36:51.189Z,14.20
2023-03-21T11:39:44.463Z,14.14
2023-03-21T11:42:29.285Z,14.24
2023-03-21T11:45:05.248Z,14.30
2023-03-21T11:47:34.245Z,14.36
2023-03-21T11:50:05.212Z,14.50
2023-03-21T11:52:41.608Z,14.33
2023-03-21T11:55:19.679Z,14.33
2023-03-21T11:58:14.879Z,14.44
2023-03-21T12:00:44.302Z,14.47
2023-03-21T12:03:47.086Z,14.59
2023-03-21T12:06:31.268Z,14.79
2023-03-21T12:09:18.604Z,14.83
2023-03-21T12:12:08.949Z,14.87
2023-03-21T12:14:44.494Z,14.94
2023-03-21T12:17:20.011Z,14.97
2023-03-21T12:20:00.957Z,15.06
2023-03-21T12:22:27.471Z,15.17
2023-03-21T12:24:58.720Z,14.98
2023-03-21T12:27:50.975Z,15.19
2023-03-21T12:30:29.730Z,15.19
2023-03-21T12:33:06.768Z,15.26
2023-03-21T12:35:44.560Z,15.34
2023-03-21T12:38:28.519Z,15.15
2023-03-21T12:41:20.484Z,15.35
2023-03-21T12:43:49.968Z,15.57
2023-03-21T12:46:40.567Z,15.34
2023-03-21T12:49:19.300Z,15.33
2023-03-21T12:51:54.398Z,15.81
2023-03-21T12:54:31.469Z,15.86
2023-03-21T12:57:17.883Z,15.89
2023-03-21T12:59:51.494Z,15.84
2023-03-21T13:02:32.088Z,15.85
2023-03-21T13:05:14.162Z,15.62
2023-03-21T13:07:44.011Z,15.69
2023-03-21T13:10:16.737Z,15.49
2023-03-21T13:13:10.090Z,15.64
2023-03-21T13:15:48.871Z,15.55
2023-03-21T13:18:34.307Z,15.55
2023-03-21T13:21:13.166Z,15.27
2023-03-21T13:23:56.037Z,15.37
2023-03-21T13:26:33.619Z,15.36
2023-03-21T13:29:02.716Z,15.38
2023-03-21T13:31:33.911Z,15.31
2023-03-21T13:34:09.444Z,15.55
2023-03-21T13:36:39.687Z,15.54
2023-03-21T13:39:26.480Z,15.68
2023-03-21T13:41:54.722Z,15.86
2023-03-21T13:44:43.512Z,15.84
2023-03-21T13:47:36.941Z,15.86
2023-03-21T13:50:21.495Z,16.00
2023-03-21T13:53:03.476Z,16.07
2023-03-21T13:55:44.609Z,15.95
2023-03-21T13:58:34.902Z,16.14
2023-03-21T14:01:10.627Z,16.05
2023-03-21T14:03:40.022Z,15.95
2023-03-21T14:06:07.110Z,16.01
2023-03-21T14:08:37.664Z,16.13
2023-03-21T14:11:12.320Z,16.01
2023-03-21T14:13:50.770Z,16.23
2023-03-21T14:16:25.574Z,16.08
2023-03-21T14:18:56.458Z,16.07
2023-03-21T14:21:29.529Z,16.03
2023-03-21T14:23:57.563Z,16.13
2023-03-21T14:26:25.685Z,16.07
2023-03-21T14:28:55.292Z,16.02
2023-03-21T14:31:21.957Z,16.15
2023-03-21T14:33:54.626Z,16.15
2023-03-21T14:36:27.821Z,16.24
2023-03-21T14:38:57.755Z,16.30
2023-03-21T14:41:29.232Z,16.23
2023-03-21T14:44:11.123Z,16.28
2023-03-21T14:46:42.762Z,16.18
2023-03-21T14:49:12.416Z,16.31
2023-03-21T14:51:39.245Z,16.12
2023-03-21T14:54:06.574Z,16.03
2023-03-21T14:56:38.456Z,15.93
2023-03-21T14:59:05.119Z,15.93
2023-03-21T15:01:34.784Z,15.98
2023-03-21T15:04:06.565Z,16.01
2023-03-21T15:06:52.402Z,16.10
2023-03-21T15:09:20.794Z,15.96
2023-03-21T15:11:53.829Z,16.07
2023-03-21T15:14:27.058Z,16.16
2023-03-21T15:16:55.377Z,16.16
2023-03-21T15:19:30.784Z,16.19
2023-03-21T15:22:03.300Z,16.06
2023-03-21T15:24:39.653Z,16.18
2023-03-21T15:27:17.483Z,15.89
2023-03-21T15:29:45.156Z,16.15
2023-03-21T15:32:19.378Z,15.87
2023-03-21T15:34:49.327Z,15.91
2023-03-21T15:37:25.726Z,15.58
2023-03-21T15:40:05.970Z,15.68
2023-03-21T15:42:37.435Z,15.63
2023-03-21T15:45:17.326Z,15.61
2023-03-21T15:48:26.231Z,15.50
2023-03-21T15:51:01.658Z,15.47
2023-03-21T15:53:32.744Z,15.39
2023-03-21T15:56:04.129Z,15.43
2023-03-21T15:58:43.994Z,15.37
2023-03-21T16:01:20.036Z,15.34
2023-03-21T16:03:52.392Z,15.31
2023-03-21T16:06:25.654Z,15.26
2023-03-21T16:09:05.565Z,15.20
2023-03-21T16:11:53.176Z,15.15
2023-03-21T16:14:21.534Z,15.04
2023-03-21T16:16:49.507Z,14.99
2023-03-21T16:19:16.966Z,15.04
2023-03-21T16:21:43.814Z,14.90
2023-03-21T16:24:11.732Z,14.88
2023-03-21T16:26:43.706Z,14.80
2023-03-21T16:29:19.553Z,14.83
2023-03-21T16:31:49.398Z,14.76
2023-03-21T16:34:18.377Z,14.71
2023-03-21T16:36:45.000Z,14.68
2023-03-21T16:39:22.570Z,14.68
2023-03-21T16:41:50.579Z,14.71
2023-03-21T16:44:20.176Z,14.67
2023-03-21T16:46:47.353Z,14.63
2023-03-21T16:49:24.962Z,14.57
2023-03-21T16:51:52.090Z,14.53
2023-03-21T16:54:18.749Z,14.49
2023-03-21T16:56:55.980Z,14.43
2023-03-21T16:59:22.669Z,14.27
2023-03-21T17:01:50.151Z,14.20
2023-03-21T17:04:18.362Z,14.13
2023-03-21T17:06:49.375Z,13.98
2023-03-21T17:09:17.389Z,13.92
2023-03-21T17:11:44.472Z,13.86
2023-03-21T17:14:13.014Z,13.78
2023-03-21T17:16:43.309Z,13.70
2023-03-21T17:19:12.852Z,13.66
2023-03-21T17:21:40.471Z,13.56
2023-03-21T17:24:11.871Z,13.46
2023-03-21T17:26:38.537Z,13.36
2023-03-21T17:29:07.560Z,13.20
2023-03-21T17:31:36.981Z,13.18
2023-03-21T17:34:04.556Z,13.11
2023-03-21T17:36:36.617Z,12.97
2023-03-21T17:39:06.095Z,12.96
2023-03-21T17:41:37.894Z,12.97
2023-03-21T17:44:04.592Z,12.88
2023-03-21T17:46:38.767Z,12.78
2023-03-21T17:49:06.730Z,12.71
2023-03-21T17:51:35.844Z,12.55
2023-03-21T17:54:02.482Z,12.53
2023-03-21T17:56:32.697Z,12.51
2023-03-21T17:59:05.772Z,12.50
2023-03-21T18:01:35.505Z,12.41
2023-03-21T18:04:05.214Z,12.35
2023-03-21T18:06:37.507Z,12.24
2023-03-21T18:09:10.978Z,12.18
2023-03-21T18:11:39.208Z,12.12
2023-03-21T18:14:17.511Z,12.09
2023-03-21T18:16:47.949Z,12.04
2023-03-21T18:19:14.900Z,12.04
2023-03-21T18:21:44.873Z,12.09
2023-03-21T18:24:14.144Z,12.01
2023-03-21T18:26:41.214Z,11.97
2023-03-21T18:32:06.463Z,11.92
2023-03-21T18:34:38.851Z,11.88
2023-03-21T18:37:08.189Z,11.82
2023-03-21T18:39:39.922Z,11.74
2023-03-21T18:42:07.166Z,11.67
2023-03-21T18:44:45.566Z,11.66
2023-03-21T18:47:15.125Z,11.73
2023-03-21T18:50:12.504Z,11.73
2023-03-21T18:52:28.662Z,11.70
2023-03-21T18:54:55.518Z,11.61
2023-03-21T18:57:38.637Z,11.48
2023-03-21T19:00:17.528Z,11.35
2023-03-21T19:02:50.637Z,11.32
2023-03-21T19:05:19.989Z,11.44
2023-03-21T19:07:51.611Z,11.52
2023-03-21T19:10:24.960Z,11.54
2023-03-21T19:12:53.018Z,11.43
2023-03-21T19:15:24.058Z,11.40
2023-03-21T19:20:48.087Z,11.21
2023-03-21T19:23:18.702Z,11.22
2023-03-21T19:25:45.379Z,11.25
2023-03-21T19:28:14.464Z,11.25
2023-03-21T19:30:49.108Z,11.36
2023-03-21T19:33:20.108Z,11.21
2023-03-21T19:36:08.945Z,11.11
2023-03-21T19:38:37.751Z,11.12
2023-03-21T19:41:04.428Z,11.20
2023-03-21T19:43:33.368Z,11.20
2023-03-21T19:46:05.208Z,11.02
2023-03-21T19:48:32.729Z,10.86
2023-03-21T19:51:26.974Z,10.95
2023-03-21T19:53:49.005Z,11.06
2023-03-21T19:56:22.269Z,11.07
2023-03-21T19:58:51.685Z,11.03
2023-03-21T20:01:18.374Z,10.92
2023-03-21T20:03:44.952Z,10.90
2023-03-21T20:06:13.760Z,10.66
2023-03-21T20:09:13.643Z,10.65
2023-03-21T20:11:32.352Z,10.71
2023-03-21T20:14:03.084Z,10.66
2023-03-21T20:16:35.784Z,10.42
2023-03-21T20:19:08.724Z,10.62
2023-03-21T20:21:47.617Z,10.56
2023-03-21T20:24:16.857Z,10.57
2023-03-21T20:26:46.501Z,10.62
2023-03-21T20:32:02.274Z,10.60
2023-03-21T20:34:30.448Z,10.41
2023-03-21T20:37:00.032Z,10.33
2023-03-21T20:39:33.882Z,10.23
2023-03-21T20:42:03.940Z,10.16
2023-03-21T20:47:19.997Z,10.13
2023-03-21T20:49:46.578Z,10.12
2023-03-21T20:55:08.995Z,10.13
2023-03-21T20:57:38.566Z,10.13
2023-03-21T21:00:13.619Z,10.12
2023-03-21T21:02:41.471Z,10.16
2023-03-21T21:05:25.384Z,10.20
2023-03-21T21:07:57.367Z,10.24
2023-03-21T21:10:26.917Z,10.22
2023-03-21T21:12:56.188Z,10.23
2023-03-21T21:15:25.328Z,10.24
2023-03-21T21:18:06.442Z,10.24
2023-03-21T21:20:40.189Z,10.28
2023-03-21T21:23:09.712Z,10.20
2023-03-21T21:25:37.562Z,10.16
2023-03-21T21:28:09.209Z,10.22
2023-03-21T21:30:39.341Z,10.24
2023-03-21T21:33:06.162Z,10.25
2023-03-21T21:35:35.945Z,10.25
2023-03-21T21:38:04.754Z,10.25
2023-03-21T21:40:34.240Z,10.23
2023-03-21T21:43:03.800Z,10.22
2023-03-21T21:45:32.979Z,10.24
2023-03-21T21:48:02.170Z,10.23
2023-03-21T21:50:31.352Z,10.23
2023-03-21T21:52:57.937Z,10.26
2023-03-21T21:55:24.525Z,10.26
2023-03-21T21:57:53.139Z,10.24
2023-03-21T22:00:20.358Z,10.30
2023-03-21T22:02:47.188Z,10.30
2023-03-21T22:05:17.120Z,10.23
2023-03-21T22:07:45.903Z,10.22
2023-03-21T22:10:12.546Z,10.23
2023-03-21T22:12:41.493Z,10.19
2023-03-21T22:15:11.954Z,10.18
2023-03-21T22:17:42.294Z,10.18
2023-03-21T22:20:16.826Z,9.95
2023-03-21T22:22:43.536Z,9.90
2023-03-21T22:25:14.862Z,9.89
2023-03-21T22:27:42.176Z,9.99
2023-03-21T22:30:13.809Z,9.96
2023-03-21T22:32:44.789Z,9.97
2023-03-21T22:35:14.314Z,9.97
2023-03-21T22:37:42.206Z,9.83
2023-03-21T22:40:13.220Z,9.90
2023-03-21T22:42:46.053Z,9.93
2023-03-21T22:45:14.624Z,9.91
2023-03-21T22:47:43.787Z,9.85
2023-03-21T22:50:13.111Z,9.84
2023-03-21T22:52:41.950Z,9.74
2023-03-21T22:55:12.678Z,9.67
2023-03-21T22:57:39.274Z,9.67
2023-03-21T23:00:13.260Z,9.58
2023-03-21T23:02:41.408Z,9.72
2023-03-21T23:05:10.626Z,9.63
2023-03-21T23:07:39.626Z,9.56
2023-03-21T23:10:12.079Z,9.38
2023-03-21T23:12:41.266Z,9.51
2023-03-21T23:15:09.096Z,9.55
2023-03-21T23:17:38.569Z,9.56
2023-03-21T23:20:07.878Z,9.47
2023-03-21T23:22:40.048Z,9.56
2023-03-21T23:25:09.369Z,9.46
2023-03-21T23:27:36.017Z,9.56
2023-03-21T23:30:04.977Z,9.60
2023-03-21T23:32:31.572Z,9.47
2023-03-21T23:34:58.667Z,9.24
2023-03-21T23:37:26.167Z,9.32
2023-03-21T23:39:55.385Z,9.29
2023-03-21T23:42:23.243Z,9.39
2023-03-21T23:44:49.849Z,9.43
2023-03-21T23:47:16.765Z,9.34
2023-03-21T23:49:45.312Z,9.31
2023-03-21T23:52:12.039Z,9.39
2023-03-21T23:54:40.766Z,9.36
2023-03-21T23:57:07.355Z,9.41
2023-03-21T23:59:34.081Z,9.42
